Time;durP1;ratioP1;P1;durP2;ratioP2;P2;SDS_P1;SDS_P2;PMS_P1;PMS_P2;Temp;Humidity;BMP_temperature;BMP_pressure;BME280_temperature;BME280_humidity;BME280_pressure;Samples;Min_cycle;Max_cycle;Signal;HPM_P1;HPM_P2
2023/12/28 03:57:34;;;;;;;4.82;1.48;;;;;;;6.24;65.84;100556.56;5623630;23;20043;-71
2023/12/28 04:00:00;;;;;;;8.10;1.52;;;;;;;6.14;66.25;100550.13;4913252;29;20055;-72
2023/12/28 04:02:31;;;;;;;3.03;1.52;;;;;;;6.17;65.49;100549.91;4897351;29;20080;-72
2023/12/28 04:04:58;;;;;;;5.13;1.77;;;;;;;6.15;66.09;100543.75;4912675;29;20044;-71
2023/12/28 04:07:25;;;;;;;4.65;1.63;;;;;;;6.25;65.11;100547.50;4912731;29;20052;-71
2023/12/28 04:09:56;;;;;;;4.13;1.73;;;;;;;6.25;65.10;100543.94;4912818;29;20044;-71
2023/12/28 04:12:22;;;;;;;4.00;1.73;;;;;;;6.28;65.08;100547.28;4912775;29;20051;-72
2023/12/28 04:14:49;;;;;;;3.75;1.63;;;;;;;6.25;64.96;100550.19;4913772;29;20048;-71
2023/12/28 04:17:15;;;;;;;5.60;1.52;;;;;;;6.33;64.21;100546.94;4915467;29;20048;-71
2023/12/28 04:19:42;;;;;;;3.88;1.50;;;;;;;6.24;64.57;100564.63;4918066;29;20092;-72
2023/12/28 04:22:09;;;;;;;3.28;1.80;;;;;;;6.35;64.12;100567.44;4915708;29;20060;-71
2023/12/28 04:24:37;;;;;;;2.83;1.27;;;;;;;6.33;64.26;100569.34;4916190;29;20047;-71
2023/12/28 04:27:03;;;;;;;4.65;1.55;;;;;;;6.48;63.79;100588.06;4896978;29;20532;-71
2023/12/28 04:29:30;;;;;;;7.15;2.03;;;;;;;6.39;63.93;100566.22;4915468;29;20107;-71
2023/12/28 04:31:56;;;;;;;3.10;1.48;;;;;;;6.49;63.39;100565.53;4916788;29;20481;-71
2023/12/28 04:34:23;;;;;;;5.10;1.83;;;;;;;6.48;63.08;100566.53;4899506;29;20593;-71
2023/12/28 04:36:52;;;;;;;3.10;1.40;;;;;;;6.58;62.67;100562.16;4914968;29;20107;-71
2023/12/28 04:39:19;;;;;;;3.30;1.63;;;;;;;6.65;62.12;100566.13;4916444;29;20092;-71
2023/12/28 04:41:45;;;;;;;4.43;1.70;;;;;;;6.69;61.58;100565.78;4916605;29;20497;-71
2023/12/28 04:44:12;;;;;;;4.03;1.75;;;;;;;6.67;61.82;100559.66;4916197;29;20103;-71
2023/12/28 04:46:41;;;;;;;7.13;1.67;;;;;;;6.66;61.74;100559.78;4897455;29;20454;-71
2023/12/28 04:49:07;;;;;;;4.55;1.67;;;;;;;6.69;61.68;100563.09;4915430;29;20516;-71
2023/12/28 04:51:34;;;;;;;5.55;1.95;;;;;;;6.68;61.44;100568.59;4914585;29;20078;-71
2023/12/28 04:54:01;;;;;;;2.72;1.45;;;;;;;6.69;61.64;100564.91;4913895;29;20059;-71
2023/12/28 04:56:27;;;;;;;3.83;1.60;;;;;;;6.76;61.43;100578.81;4914843;29;20501;-72
2023/12/28 04:58:54;;;;;;;3.00;1.50;;;;;;;6.76;61.27;100576.97;4915560;29;20056;-71
2023/12/28 05:01:20;;;;;;;7.25;1.45;;;;;;;6.67;61.52;100572.28;4914650;29;20490;-71
2023/12/28 05:03:47;;;;;;;2.63;1.42;;;;;;;6.79;61.22;100583.97;4914692;29;20448;-71
2023/12/28 05:06:13;;;;;;;4.03;1.38;;;;;;;6.64;61.81;100577.91;4914372;29;20051;-71
2023/12/28 05:08:40;;;;;;;4.05;1.63;;;;;;;6.73;61.36;100588.00;4915409;29;20048;-71
2023/12/28 05:11:07;;;;;;;3.22;1.70;;;;;;;6.64;62.22;100596.75;4914408;29;20048;-71
2023/12/28 05:13:34;;;;;;;5.65;2.03;;;;;;;6.67;61.73;100599.22;4915063;29;20052;-71
2023/12/28 05:16:01;;;;;;;3.92;1.90;;;;;;;6.62;62.14;100598.69;4912887;29;20059;-71
2023/12/28 05:18:29;;;;;;;5.78;2.35;;;;;;;6.67;62.27;100593.81;4913764;29;20044;-72
2023/12/28 05:20:56;;;;;;;6.45;1.63;;;;;;;6.70;62.04;100610.63;4914728;29;20055;-72
2023/12/28 05:23:22;;;;;;;4.10;1.83;;;;;;;6.76;62.32;100609.31;4914111;29;20044;-71
2023/12/28 05:25:49;;;;;;;4.05;1.85;;;;;;;6.71;62.21;100606.94;4913590;29;20477;-72
2023/12/28 05:28:15;;;;;;;4.57;1.70;;;;;;;6.71;62.80;100606.09;4912922;29;20052;-71
2023/12/28 05:30:42;;;;;;;6.68;2.00;;;;;;;6.74;62.64;100611.28;4914384;29;20048;-71
2023/12/28 05:33:09;;;;;;;5.40;1.50;;;;;;;6.78;62.93;100595.72;4913326;29;20461;-71
2023/12/28 05:35:36;;;;;;;3.95;1.50;;;;;;;6.72;63.28;100615.91;4914191;29;20099;-71
2023/12/28 05:38:02;;;;;;;3.65;1.30;;;;;;;6.79;63.56;100602.84;4914200;29;20108;-72
2023/12/28 05:40:29;;;;;;;4.65;1.90;;;;;;;6.75;63.62;100610.28;4914153;29;20076;-72
2023/12/28 05:42:55;;;;;;;2.67;1.33;;;;;;;6.81;64.24;100625.13;4914596;29;20104;-71
2023/12/28 05:45:22;;;;;;;2.45;1.20;;;;;;;6.79;64.66;100622.56;4912569;29;20056;-71
2023/12/28 05:47:48;;;;;;;4.10;1.35;;;;;;;6.86;64.63;100625.69;4913012;29;20126;-72
2023/12/28 05:50:15;;;;;;;2.67;1.55;;;;;;;6.82;65.56;100629.59;4914079;29;20135;-71
2023/12/28 05:52:42;;;;;;;2.95;1.33;;;;;;;6.83;65.61;100640.25;4912767;29;20048;-71
2023/12/28 05:55:08;;;;;;;2.47;1.35;;;;;;;6.84;66.00;100639.28;4912582;29;20052;-72
2023/12/28 05:57:35;;;;;;;7.35;1.70;;;;;;;6.82;66.85;100652.00;4914020;29;20112;-71
2023/12/28 06:00:03;;;;;;;3.63;1.45;;;;;;;6.86;66.94;100645.41;4913407;29;20142;-71
2023/12/28 06:02:31;;;;;;;3.78;1.38;;;;;;;6.92;66.85;100644.97;4913517;29;20074;-71
2023/12/28 06:04:57;;;;;;;3.63;1.63;;;;;;;6.88;67.24;100642.59;4895886;29;20056;-71
2023/12/28 06:07:25;;;;;;;3.97;1.70;;;;;;;6.97;67.56;100645.47;4913498;29;20477;-71
2023/12/28 06:09:52;;;;;;;2.92;1.40;;;;;;;7.06;67.56;100643.06;4912374;29;20051;-71
2023/12/28 06:12:19;;;;;;;4.43;1.77;;;;;;;7.12;67.40;100656.09;4912090;29;20044;-71
2023/12/28 06:14:46;;;;;;;2.05;1.35;;;;;;;7.10;67.74;100661.63;4912639;29;20483;-71
2023/12/28 06:17:15;;;;;;;4.40;1.98;;;;;;;7.15;67.63;100659.41;4913329;29;20056;-71
2023/12/28 06:19:41;;;;;;;3.40;1.25;;;;;;;7.18;67.58;100664.56;4912991;29;20449;-71
2023/12/28 06:22:08;;;;;;;3.17;1.70;;;;;;;7.14;67.76;100656.84;4912799;29;20528;-72
2023/12/28 06:24:40;;;;;;;6.88;1.70;;;;;;;7.10;68.26;100666.16;4913381;29;20119;-73
2023/12/28 06:27:08;;;;;;;4.05;1.63;;;;;;;7.20;67.46;100667.19;4912124;29;20052;-71
2023/12/28 06:29:34;;;;;;;2.30;1.40;;;;;;;7.14;67.73;100663.09;4913191;29;20048;-72
2023/12/28 06:32:01;;;;;;;4.28;1.63;;;;;;;7.12;67.50;100651.56;4912966;29;20478;-71
2023/12/28 06:34:28;;;;;;;2.25;1.55;;;;;;;7.00;68.40;100658.75;4911982;29;20407;-71
2023/12/28 06:36:54;;;;;;;7.63;1.98;;;;;;;7.00;68.75;100661.44;4914118;29;20040;-72
2023/12/28 06:39:21;;;;;;;3.88;1.58;;;;;;;7.00;68.68;100655.16;4911807;29;20139;-72
2023/12/28 06:41:49;;;;;;;4.18;1.58;;;;;;;7.03;68.71;100654.94;4913839;29;20050;-72
2023/12/28 06:44:15;;;;;;;4.68;1.60;;;;;;;7.05;68.84;100658.38;4911806;29;20052;-72
2023/12/28 06:46:42;;;;;;;4.82;1.83;;;;;;;7.00;69.42;100657.84;4912805;29;20102;-71
2023/12/28 06:49:09;;;;;;;5.90;1.50;;;;;;;6.97;69.88;100658.09;4912366;29;20048;-72
2023/12/28 06:51:37;;;;;;;3.92;1.70;;;;;;;6.99;69.72;100653.44;4912137;29;20048;-72
2023/12/28 06:54:04;;;;;;;5.28;1.55;;;;;;;6.94;70.19;100661.03;4910147;29;20132;-71
2023/12/28 06:56:30;;;;;;;3.80;1.75;;;;;;;6.98;69.91;100657.97;4911592;29;20096;-71
2023/12/28 06:58:57;;;;;;;4.32;1.70;;;;;;;6.98;70.22;100663.38;4912643;29;20044;-71
2023/12/28 07:01:24;;;;;;;4.25;1.90;;;;;;;7.03;69.94;100665.72;4913443;29;20048;-71
2023/12/28 07:03:50;;;;;;;4.45;1.73;;;;;;;6.98;70.39;100671.44;4911848;29;20446;-71
2023/12/28 07:06:17;;;;;;;7.00;1.70;;;;;;;6.96;70.50;100665.31;4912524;29;20054;-73
2023/12/28 07:08:44;;;;;;;6.72;3.30;;;;;;;7.02;70.56;100668.56;4912525;29;20055;-72
2023/12/28 07:11:11;;;;;;;3.50;1.70;;;;;;;7.04;70.42;100672.84;4895540;29;20092;-72
2023/12/28 07:13:38;;;;;;;3.78;1.75;;;;;;;6.96;70.81;100678.81;4912556;29;20052;-72
2023/12/28 07:16:07;;;;;;;5.82;1.63;;;;;;;7.06;70.65;100686.22;4911868;29;20060;-71
2023/12/28 07:18:34;;;;;;;7.15;1.60;;;;;;;7.06;71.05;100697.84;4894873;29;20051;-71
2023/12/28 07:21:00;;;;;;;8.80;1.75;;;;;;;7.04;70.91;100698.97;4911013;29;20064;-73
2023/12/28 07:23:27;;;;;;;5.65;2.03;;;;;;;6.98;71.13;100706.50;4894770;29;20059;-71
2023/12/28 07:25:54;;;;;;;4.22;1.33;;;;;;;7.02;71.22;100704.47;4912992;29;20079;-73
2023/12/28 07:28:21;;;;;;;3.40;2.15;;;;;;;7.04;70.97;100702.50;4910391;29;20063;-71
2023/12/28 07:30:47;;;;;;;4.25;1.77;;;;;;;6.97;71.53;100703.94;4911830;29;20454;-72
2023/12/28 07:33:14;;;;;;;5.18;1.50;;;;;;;6.90;71.71;100698.13;4912226;29;20052;-72
2023/12/28 07:35:41;;;;;;;5.63;1.67;;;;;;;6.94;72.02;100704.16;4911759;29;20071;-72
2023/12/28 07:38:07;;;;;;;2.40;1.48;;;;;;;6.95;71.95;100701.34;4911810;29;20084;-73
2023/12/28 07:40:34;;;;;;;4.32;1.70;;;;;;;6.84;72.54;100700.41;4894923;29;20053;-72
2023/12/28 07:43:02;;;;;;;3.28;1.58;;;;;;;6.82;72.39;100697.84;4910818;29;20086;-72
2023/12/28 07:45:29;;;;;;;2.85;1.38;;;;;;;6.96;72.22;100708.47;4911514;29;20040;-71
2023/12/28 07:47:56;;;;;;;5.82;1.88;;;;;;;7.00;72.04;100712.69;4913081;29;20048;-72
2023/12/28 07:50:24;;;;;;;3.05;1.77;;;;;;;7.06;72.07;100707.78;4913394;29;20080;-72
2023/12/28 07:52:50;;;;;;;2.75;1.50;;;;;;;7.05;71.95;100727.66;4916784;29;20080;-72
2023/12/28 07:55:19;;;;;;;4.75;1.65;;;;;;;7.08;71.79;100722.00;4916468;29;20121;-72
2023/12/28 07:57:46;;;;;;;5.45;1.70;;;;;;;7.07;72.13;100733.78;4916517;29;20099;-72
2023/12/28 08:00:13;;;;;;;5.07;1.63;;;;;;;7.07;72.18;100733.78;4915926;29;20052;-72
2023/12/28 08:02:40;;;;;;;4.65;1.70;;;;;;;7.04;72.30;100726.78;4917041;29;20054;-72
2023/12/28 08:05:07;;;;;;;3.03;1.58;;;;;;;7.15;71.72;100734.09;4915491;29;20069;-71
2023/12/28 08:07:33;;;;;;;6.97;1.73;;;;;;;7.01;72.42;100732.41;4914615;29;20115;-72
2023/12/28 08:10:01;;;;;;;3.55;2.15;;;;;;;7.05;72.74;100733.91;4915295;29;20462;-72
2023/12/28 08:12:28;;;;;;;6.20;1.95;;;;;;;7.05;72.67;100749.22;4914983;29;20473;-71
2023/12/28 08:14:55;;;;;;;3.72;1.75;;;;;;;7.10;72.12;100742.53;4916562;29;20048;-73
2023/12/28 08:17:22;;;;;;;3.70;1.85;;;;;;;7.12;71.89;100745.09;4916625;29;20052;-72
2023/12/28 08:19:49;;;;;;;5.88;1.88;;;;;;;7.13;71.58;100752.22;4915275;29;20127;-73
2023/12/28 08:22:16;;;;;;;3.22;1.67;;;;;;;7.13;71.66;100758.47;4914734;29;20052;-72
2023/12/28 08:24:43;;;;;;;5.22;1.70;;;;;;;7.12;71.58;100753.19;4915200;29;20048;-73
2023/12/28 08:27:09;;;;;;;3.42;1.60;;;;;;;7.33;70.71;100759.69;4913842;29;20103;-72
2023/12/28 08:29:36;;;;;;;3.60;1.63;;;;;;;7.35;70.51;100752.38;4915707;29;20501;-72
2023/12/28 08:32:03;;;;;;;4.25;1.95;;;;;;;7.30;70.49;100751.84;4915552;29;20090;-72
2023/12/28 08:34:30;;;;;;;5.43;1.73;;;;;;;7.36;70.11;100748.69;4915141;29;20048;-72
2023/12/28 08:36:57;;;;;;;4.40;1.85;;;;;;;7.32;70.59;100751.72;4916716;29;20140;-72
2023/12/28 08:39:26;;;;;;;3.63;1.70;;;;;;;7.32;70.59;100746.31;4914746;29;20080;-72
2023/12/28 08:41:53;;;;;;;4.28;1.95;;;;;;;7.38;70.29;100754.88;4915383;29;20051;-72
2023/12/28 08:44:20;;;;;;;5.60;1.90;;;;;;;7.43;69.60;100759.91;4913352;29;20052;-73
2023/12/28 08:46:47;;;;;;;6.22;1.63;;;;;;;7.41;69.96;100762.72;4915684;29;20055;-73
2023/12/28 08:49:15;;;;;;;4.45;2.10;;;;;;;7.42;70.01;100766.28;4914603;29;20048;-72
2023/12/28 08:51:42;;;;;;;2.67;1.65;;;;;;;7.48;69.41;100769.41;4916036;29;20480;-72
2023/12/28 08:54:10;;;;;;;5.22;2.03;;;;;;;7.51;69.54;100755.66;4906155;29;20128;-73
2023/12/28 08:56:37;;;;;;;4.68;1.92;;;;;;;7.31;70.19;100768.88;4897346;29;20048;-71
2023/12/28 08:59:03;;;;;;;5.40;2.22;;;;;;;7.54;69.18;100766.22;4895350;29;20611;-72
2023/12/28 09:01:30;;;;;;;4.05;2.00;;;;;;;7.53;69.28;100769.91;4895548;29;20123;-71
2023/12/28 09:03:58;;;;;;;7.13;2.22;;;;;;;7.57;68.97;100776.81;4897002;29;20059;-72
2023/12/28 09:06:25;;;;;;;3.33;2.00;;;;;;;7.51;68.89;100777.25;4897944;29;20041;-72
2023/12/28 09:08:52;;;;;;;6.03;2.38;;;;;;;7.57;68.83;100779.50;4896194;29;20069;-72
2023/12/28 09:11:19;;;;;;;5.28;1.92;;;;;;;7.65;68.64;100772.66;4897030;29;20052;-75
2023/12/28 09:13:46;;;;;;;4.30;2.33;;;;;;;7.61;69.02;100785.53;4897468;29;20465;-72
2023/12/28 09:16:14;;;;;;;3.40;1.92;;;;;;;7.52;69.34;100792.47;4895500;29;20087;-72
2023/12/28 09:18:41;;;;;;;3.35;1.88;;;;;;;7.54;69.42;100779.72;4896758;29;20135;-72
2023/12/28 09:21:09;;;;;;;3.40;1.83;;;;;;;7.54;68.39;100785.13;4897926;29;20056;-72
2023/12/28 09:23:37;;;;;;;3.72;2.15;;;;;;;7.59;68.98;100781.22;4896374;29;20052;-72
2023/12/28 09:26:06;;;;;;;3.90;1.80;;;;;;;7.52;69.32;100789.78;4895527;29;20072;-72
2023/12/28 09:28:33;;;;;;;5.60;2.20;;;;;;;7.55;68.82;100781.44;4896878;29;20045;-71
2023/12/28 09:31:01;;;;;;;3.47;2.20;;;;;;;7.50;69.39;100783.63;4896428;29;20119;-71
2023/12/28 09:33:28;;;;;;;3.70;2.13;;;;;;;7.64;68.89;100779.03;4896814;29;20045;-71
2023/12/28 09:35:55;;;;;;;4.28;2.05;;;;;;;7.47;69.09;100773.06;4897062;29;20052;-72
2023/12/28 09:38:22;;;;;;;4.95;2.00;;;;;;;7.63;68.80;100774.59;4895434;29;20679;-71
2023/12/28 09:40:53;;;;;;;4.15;1.88;;;;;;;7.52;68.94;100770.88;4895894;29;20101;-72
2023/12/28 09:43:26;;;;;;;6.70;3.15;;;;;;;7.49;69.34;100771.13;4896751;29;20048;-72
2023/12/28 09:45:54;;;;;;;5.35;1.92;;;;;;;7.44;69.59;100767.88;4895810;29;20430;-72
2023/12/28 09:48:22;;;;;;;5.97;2.40;;;;;;;7.43;69.66;100768.88;4897246;29;20072;-72
2023/12/28 09:50:51;;;;;;;4.35;2.40;;;;;;;7.50;69.81;100774.69;4896370;29;20049;-72
2023/12/28 09:53:17;;;;;;;7.03;2.70;;;;;;;7.49;70.08;100776.50;4898648;29;20147;-72
2023/12/28 09:55:45;;;;;;;2.50;1.58;;;;;;;7.61;69.19;100768.47;4915263;29;20497;-72
2023/12/28 09:58:16;;;;;;;6.85;2.45;;;;;;;7.50;69.89;100766.59;4915660;29;20048;-73
2023/12/28 10:00:48;;;;;;;7.43;2.25;;;;;;;7.50;69.91;100762.03;4914623;29;20100;-72
2023/12/28 10:03:16;;;;;;;5.80;2.40;;;;;;;7.55;69.62;100765.25;4913828;29;20056;-73
2023/12/28 10:05:45;;;;;;;5.10;2.10;;;;;;;7.57;69.61;100760.63;4913934;29;20044;-73
2023/12/28 10:08:15;;;;;;;5.30;2.05;;;;;;;7.63;69.82;100751.16;4913794;29;20584;-72
2023/12/28 10:10:50;;;;;;;4.73;1.90;;;;;;;7.72;69.03;100746.91;4914642;29;20048;-73
2023/12/28 10:13:17;;;;;;;5.13;2.33;;;;;;;7.88;68.79;100744.78;4915516;29;20079;-72
2023/12/28 10:15:44;;;;;;;5.70;2.50;;;;;;;8.12;67.77;100753.69;4914576;29;20080;-71
2023/12/28 10:18:11;;;;;;;4.85;2.13;;;;;;;8.24;67.34;100746.47;4914527;29;20130;-72
2023/12/28 10:20:38;;;;;;;3.97;2.00;;;;;;;8.32;67.22;100754.00;4915339;29;20051;-73
2023/12/28 10:23:04;;;;;;;5.82;2.40;;;;;;;8.43;66.51;100757.56;4914389;29;20134;-73
2023/12/28 10:25:32;;;;;;;7.22;2.45;;;;;;;8.64;65.83;100749.59;4913195;29;20465;-71
2023/12/28 10:28:05;;;;;;;5.80;2.42;;;;;;;8.86;65.13;100750.56;4913481;29;20052;-72
2023/12/28 10:30:32;;;;;;;7.95;2.38;;;;;;;9.31;63.75;100761.34;4914522;29;20417;-72
2023/12/28 10:32:59;;;;;;;6.28;2.50;;;;;;;9.68;61.82;100757.31;4914073;29;20048;-72
2023/12/28 10:35:26;;;;;;;3.95;2.25;;;;;;;9.72;61.66;100752.53;4914575;29;20044;-72
2023/12/28 10:37:57;;;;;;;4.97;2.90;;;;;;;9.73;62.20;100755.09;4915504;29;20044;-73
2023/12/28 10:40:26;;;;;;;4.35;2.47;;;;;;;9.80;61.87;100753.59;4912485;29;20398;-72
2023/12/28 10:42:57;;;;;;;6.75;2.53;;;;;;;9.88;61.21;100749.34;4913845;29;20047;-72
2023/12/28 10:45:25;;;;;;;5.35;2.92;;;;;;;9.96;61.22;100753.13;4914006;29;20047;-72
2023/12/28 10:48:02;;;;;;;3.78;2.53;;;;;;;10.23;60.00;100746.34;4913756;29;20054;-72
2023/12/28 10:50:36;;;;;;;5.35;2.78;;;;;;;10.34;59.76;100744.41;4913353;29;20493;-71
2023/12/28 10:53:18;;;;;;;6.28;2.42;;;;;;;10.42;59.67;100749.16;4912828;29;20056;-73
2023/12/28 10:56:00;;;;;;;6.00;2.53;;;;;;;10.27;59.40;100737.81;4914164;29;20048;-72
2023/12/28 10:58:48;;;;;;;4.18;2.42;;;;;;;10.30;60.15;100737.53;4914993;29;20067;-72
2023/12/28 11:01:37;;;;;;;5.25;2.42;;;;;;;10.32;59.62;100751.81;4913935;29;20052;-72
2023/12/28 11:04:17;;;;;;;4.00;2.20;;;;;;;10.62;58.75;100742.00;4913220;29;20052;-73
2023/12/28 11:06:46;;;;;;;5.50;2.60;;;;;;;10.58;58.55;100752.25;4913523;29;20052;-73
2023/12/28 11:09:15;;;;;;;7.05;1.92;;;;;;;10.61;58.65;100756.53;4912895;29;20119;-73
2023/12/28 11:11:43;;;;;;;4.78;2.83;;;;;;;10.80;58.16;100744.97;4914099;29;20048;-72
2023/12/28 11:14:11;;;;;;;3.83;2.08;;;;;;;10.82;57.93;100749.28;4914140;29;20075;-73
2023/12/28 11:16:40;;;;;;;4.80;1.95;;;;;;;10.70;58.07;100745.75;4913949;29;20048;-72
2023/12/28 11:19:08;;;;;;;3.45;2.00;;;;;;;10.46;59.00;100741.63;4912264;29;20514;-72
2023/12/28 11:21:35;;;;;;;6.25;2.40;;;;;;;10.50;58.68;100748.50;4913985;29;20067;-71
2023/12/28 11:24:03;;;;;;;5.70;2.03;;;;;;;10.55;58.49;100736.28;4913871;29;20388;-72
2023/12/28 11:26:30;;;;;;;4.15;2.10;;;;;;;10.31;59.27;100733.84;4914087;29;20568;-72
2023/12/28 11:29:03;;;;;;;4.30;1.92;;;;;;;10.30;58.94;100734.84;4913487;29;20387;-71
2023/12/28 11:31:37;;;;;;;4.28;2.15;;;;;;;10.46;58.98;100722.66;4913781;29;20478;-72
2023/12/28 11:34:07;;;;;;;3.63;2.22;;;;;;;10.52;58.74;100724.81;4911803;29;20147;-71
2023/12/28 11:36:49;;;;;;;5.32;1.95;;;;;;;10.49;58.41;100719.66;4913534;29;20047;-72
2023/12/28 11:39:34;;;;;;;10.82;2.00;;;;;;;10.41;58.42;100734.75;4914215;29;20048;-72
2023/12/28 11:42:02;;;;;;;4.88;2.20;;;;;;;10.46;57.77;100731.66;4913415;29;20490;-72
2023/12/28 11:44:31;;;;;;;5.07;2.40;;;;;;;10.24;58.94;100726.38;4913809;29;20496;-72
2023/12/28 11:46:57;;;;;;;5.22;2.03;;;;;;;10.46;58.39;100715.38;4912373;29;20493;-69
2023/12/28 11:49:28;;;;;;;4.18;2.20;;;;;;;10.54;57.87;100722.81;4912512;29;20044;-72
2023/12/28 11:51:57;;;;;;;7.43;2.60;;;;;;;10.61;57.56;100713.16;4913127;29;20147;-72
2023/12/28 11:54:26;;;;;;;7.45;2.17;;;;;;;10.51;58.07;100702.25;4912663;29;20052;-72
2023/12/28 11:56:52;;;;;;;6.55;2.22;;;;;;;10.67;57.20;100708.03;4912477;29;20056;-72
2023/12/28 11:59:20;;;;;;;5.22;1.90;;;;;;;10.83;56.69;100694.00;4911890;29;20832;-73
2023/12/28 12:01:53;;;;;;;7.97;2.10;;;;;;;10.65;57.08;100687.47;4912066;29;20497;-72
2023/12/28 12:04:22;;;;;;;4.43;2.20;;;;;;;10.59;57.74;100672.59;4911782;29;20068;-72
2023/12/28 12:06:51;;;;;;;4.28;1.95;;;;;;;10.85;56.76;100673.00;4912361;29;20474;-72
2023/12/28 12:09:22;;;;;;;5.32;2.17;;;;;;;10.67;57.44;100658.34;4913120;29;20056;-73
2023/12/28 12:11:49;;;;;;;5.40;2.10;;;;;;;10.72;57.35;100661.50;4914026;29;20465;-72
2023/12/28 12:14:16;;;;;;;5.65;2.15;;;;;;;10.82;57.32;100667.88;4896276;29;20083;-72
2023/12/28 12:16:43;;;;;;;7.50;2.22;;;;;;;10.69;57.46;100662.63;4912697;29;20088;-72
2023/12/28 12:19:10;;;;;;;5.90;2.58;;;;;;;11.08;55.79;100661.91;4913112;29;20429;-72
2023/12/28 12:21:38;;;;;;;5.30;2.40;;;;;;;10.95;56.72;100671.19;4912156;29;20055;-70
2023/12/28 12:24:05;;;;;;;7.00;2.22;;;;;;;11.22;55.90;100669.66;4911966;29;20161;-71
2023/12/28 12:26:32;;;;;;;8.35;2.33;;;;;;;11.53;54.67;100657.66;4913197;29;20052;-71
2023/12/28 12:28:58;;;;;;;5.55;2.17;;;;;;;11.48;55.16;100668.13;4913371;29;20571;-72
2023/12/28 12:31:26;;;;;;;5.30;2.05;;;;;;;11.53;55.12;100665.81;4913925;29;20044;-72
2023/12/28 12:33:53;;;;;;;5.75;1.95;;;;;;;12.15;53.32;100669.03;4913132;29;20052;-70
2023/12/28 12:36:21;;;;;;;6.30;2.00;;;;;;;12.16;52.76;100672.63;4912591;29;20044;-72
2023/12/28 12:38:48;;;;;;;5.85;1.60;;;;;;;11.82;53.81;100671.22;4898835;29;20036;-72
2023/12/28 12:41:16;;;;;;;4.32;1.85;;;;;;;12.11;53.08;100668.47;4916660;29;20108;-71
2023/12/28 12:43:42;;;;;;;2.75;1.70;;;;;;;12.71;51.00;100653.69;4917393;29;20068;-72
2023/12/28 12:46:09;;;;;;;4.10;1.73;;;;;;;12.10;52.55;100664.03;4916528;29;20505;-71
2023/12/28 12:48:36;;;;;;;4.20;2.00;;;;;;;12.08;53.50;100660.59;4917179;29;20048;-71
2023/12/28 12:51:04;;;;;;;2.90;1.52;;;;;;;11.98;53.10;100659.78;4916947;29;20103;-72
2023/12/28 12:53:34;;;;;;;5.63;2.25;;;;;;;11.64;54.65;100664.81;4916917;29;20111;-71
2023/12/28 12:56:04;;;;;;;5.53;2.03;;;;;;;11.58;54.81;100667.25;4914864;29;20060;-71
2023/12/28 12:58:31;;;;;;;4.03;1.67;;;;;;;10.74;57.55;100667.66;4916116;29;20416;-71
2023/12/28 13:01:03;;;;;;;;;;;;;;;10.44;58.54;100679.38;4917609;29;20052;-71
2023/12/28 13:03:30;;;;;;;3.58;1.70;;;;;;;10.16;59.80;100669.25;4914130;29;19958;-72
2023/12/28 13:05:57;;;;;;;4.80;1.77;;;;;;;10.36;58.93;100666.53;4916286;29;20060;-73
2023/12/28 13:08:24;;;;;;;5.80;2.08;;;;;;;10.14;59.96;100677.50;4916942;29;20078;-72
2023/12/28 13:10:51;;;;;;;4.22;1.80;;;;;;;9.92;60.76;100673.09;4916516;29;20131;-71
2023/12/28 13:13:18;;;;;;;6.70;2.40;;;;;;;9.75;61.43;100681.81;4916555;29;20052;-71
2023/12/28 13:15:44;;;;;;;6.75;2.15;;;;;;;9.68;61.60;100678.75;4916446;29;20493;-72
2023/12/28 13:18:11;;;;;;;5.68;2.05;;;;;;;9.67;62.14;100684.31;4915997;29;20052;-72
2023/12/28 13:20:38;;;;;;;5.57;2.22;;;;;;;9.42;62.71;100685.53;4916357;29;20048;-72
2023/12/28 13:23:04;;;;;;;4.10;1.90;;;;;;;9.41;62.68;100675.69;4916023;29;20080;-72
2023/12/28 13:25:33;;;;;;;7.40;2.10;;;;;;;9.28;63.51;100678.56;4916761;29;20052;-72
2023/12/28 13:28:00;;;;;;;4.75;2.30;;;;;;;9.36;63.55;100686.06;4915751;29;20127;-71
2023/12/28 13:30:28;;;;;;;4.28;2.10;;;;;;;9.30;63.86;100681.16;4916849;29;20127;-72
2023/12/28 13:32:58;;;;;;;6.15;2.63;;;;;;;9.26;63.52;100681.41;4915084;29;20048;-72
2023/12/28 13:35:25;;;;;;;2.97;1.88;;;;;;;9.25;63.70;100673.44;4916861;29;20552;-73
2023/12/28 13:37:52;;;;;;;6.10;2.10;;;;;;;9.28;63.82;100684.00;4915753;29;20048;-72
2023/12/28 13:40:18;;;;;;;9.85;2.22;;;;;;;9.30;63.75;100686.56;4915824;29;20593;-72
2023/12/28 13:42:46;;;;;;;5.88;2.15;;;;;;;9.22;64.26;100685.34;4916147;29;20136;-71
2023/12/28 13:45:13;;;;;;;5.53;2.00;;;;;;;9.33;63.89;100678.16;4915968;29;20055;-70
2023/12/28 13:47:39;;;;;;;5.85;2.15;;;;;;;9.28;63.45;100690.25;4915536;29;20048;-72
2023/12/28 13:50:07;;;;;;;7.07;1.90;;;;;;;9.20;63.86;100686.44;4916223;29;20048;-73
2023/12/28 13:52:33;;;;;;;6.57;2.60;;;;;;;9.19;63.62;100685.56;4916320;29;20052;-72
2023/12/28 13:55:00;;;;;;;8.48;2.05;;;;;;;9.29;63.44;100691.13;4915732;29;20103;-72
2023/12/28 13:57:27;;;;;;;5.72;2.00;;;;;;;9.22;63.56;100688.06;4916084;29;20052;-72
2023/12/28 13:59:56;;;;;;;4.70;2.00;;;;;;;9.25;63.55;100685.13;4915579;29;20051;-73
2023/12/28 14:02:23;;;;;;;8.48;2.38;;;;;;;9.20;63.65;100687.28;4899131;29;20134;-72
2023/12/28 14:04:50;;;;;;;5.35;2.03;;;;;;;9.22;63.86;100684.50;4915386;29;20134;-72
2023/12/28 14:07:18;;;;;;;6.45;2.38;;;;;;;9.32;62.89;100695.41;4915322;29;20060;-73
2023/12/28 14:09:45;;;;;;;11.20;2.25;;;;;;;9.38;63.56;100689.50;4914893;29;20048;-71
2023/12/28 14:12:11;;;;;;;5.72;2.50;;;;;;;9.35;63.29;100690.63;4897940;29;20056;-73
2023/12/28 14:14:38;;;;;;;4.55;1.77;;;;;;;9.36;63.19;100691.47;4915089;29;20130;-72
2023/12/28 14:17:04;;;;;;;4.20;2.40;;;;;;;9.28;63.50;100694.81;4914965;29;20067;-72
2023/12/28 14:19:32;;;;;;;5.78;2.10;;;;;;;9.25;63.71;100692.38;4915272;29;20052;-72
2023/12/28 14:21:59;;;;;;;8.05;2.08;;;;;;;9.30;63.49;100691.97;4898764;29;20135;-72
2023/12/28 14:24:26;;;;;;;6.93;2.47;;;;;;;9.34;62.93;100696.16;4914997;29;20044;-73
2023/12/28 14:26:54;;;;;;;6.45;2.53;;;;;;;9.29;63.09;100696.53;4898039;29;20048;-72
2023/12/28 14:29:22;;;;;;;4.75;2.20;;;;;;;9.17;63.86;100698.38;4914553;29;20061;-72
2023/12/28 14:31:49;;;;;;;8.82;2.42;;;;;;;9.17;63.91;100694.81;4914035;29;20100;-72
2023/12/28 14:34:16;;;;;;;4.93;1.88;;;;;;;9.17;63.47;100702.94;4914720;29;20081;-72
2023/12/28 14:36:49;;;;;;;6.20;2.65;;;;;;;9.10;64.63;100704.41;4914875;29;20135;-72
2023/12/28 14:39:19;;;;;;;4.22;1.70;;;;;;;9.13;64.04;100704.16;4914850;29;20044;-71
2023/12/28 14:41:46;;;;;;;13.20;3.45;;;;;;;8.99;64.43;100702.59;4914339;29;20051;-71
2023/12/28 14:44:13;;;;;;;9.85;2.50;;;;;;;8.88;64.88;100708.03;4914781;29;20438;-72
2023/12/28 14:46:40;;;;;;;9.07;3.60;;;;;;;8.84;65.14;100693.88;4914575;29;20048;-72
2023/12/28 14:49:06;;;;;;;13.20;3.08;;;;;;;8.69;65.49;100698.72;4897194;29;20516;-72
2023/12/28 14:51:34;;;;;;;7.38;2.90;;;;;;;8.57;65.81;100694.28;4914353;29;20462;-72
2023/12/28 14:54:02;;;;;;;6.00;2.58;;;;;;;8.46;66.68;100691.56;4914106;29;20417;-72
2023/12/28 14:56:28;;;;;;;5.38;2.28;;;;;;;8.49;66.54;100696.72;4914733;29;20358;-73
2023/12/28 14:59:06;;;;;;;10.70;2.70;;;;;;;8.46;67.11;100694.28;4913927;29;20044;-72
2023/12/28 15:01:32;;;;;;;8.30;3.08;;;;;;;8.54;66.59;100699.06;4913990;29;20482;-72
2023/12/28 15:03:59;;;;;;;6.97;2.60;;;;;;;8.45;66.79;100697.97;4914260;29;20074;-72
2023/12/28 15:06:26;;;;;;;7.78;2.42;;;;;;;8.38;67.46;100694.88;4914523;29;20465;-72
2023/12/28 15:08:52;;;;;;;5.68;2.60;;;;;;;8.35;67.43;100696.97;4914201;29;20470;-72
2023/12/28 15:11:19;;;;;;;8.20;2.45;;;;;;;8.21;68.26;100691.78;4914255;29;20060;-73
2023/12/28 15:14:04;;;;;;;7.00;2.47;;;;;;;8.10;68.88;100689.94;4913134;29;20050;-71
2023/12/28 15:16:30;;;;;;;9.85;2.15;;;;;;;8.24;68.41;100681.63;4914001;29;20108;-71
2023/12/28 15:18:57;;;;;;;7.25;2.25;;;;;;;8.22;68.32;100683.59;4914875;29;20494;-72
2023/12/28 15:21:24;;;;;;;5.70;2.13;;;;;;;8.19;68.78;100682.94;4914484;29;20044;-72
2023/12/28 15:23:52;;;;;;;7.20;1.85;;;;;;;8.06;69.50;100683.94;4913905;29;20051;-72
2023/12/28 15:26:19;;;;;;;7.18;2.22;;;;;;;7.95;69.71;100677.66;4914033;29;20086;-72
2023/12/28 15:28:47;;;;;;;6.43;2.90;;;;;;;7.97;69.79;100676.53;4914080;29;20051;-72
2023/12/28 15:31:15;;;;;;;6.53;2.35;;;;;;;8.03;69.50;100673.38;4913724;29;20048;-72